sensor_id;sensor_type;location;lat;lon;timestamp;pressure;altitude;pressure_sealevel;temperature;humidity
61537;BME280;48695;53.480;-6.300;2023-01-26T00:00:03;103025.50;;;8.18;66.26
61537;BME280;48695;53.480;-6.300;2023-01-26T00:02:28;103023.78;;;8.19;66.14
61537;BME280;48695;53.480;-6.300;2023-01-26T00:04:54;103016.88;;;8.21;66.10
61537;BME280;48695;53.480;-6.300;2023-01-26T00:07:19;103004.81;;;8.23;65.99
61537;BME280;48695;53.480;-6.300;2023-01-26T00:09:54;102971.69;;;8.17;65.87
61537;BME280;48695;53.480;-6.300;2023-01-26T00:12:19;102988.31;;;8.22;66.39
61537;BME280;48695;53.480;-6.300;2023-01-26T00:14:45;102999.59;;;8.23;65.81
61537;BME280;48695;53.480;-6.300;2023-01-26T00:17:17;103020.41;;;8.23;65.81
61537;BME280;48695;53.480;-6.300;2023-01-26T00:19:53;103023.00;;;8.21;66.10
61537;BME280;48695;53.480;-6.300;2023-01-26T00:22:20;103025.50;;;8.18;66.13
61537;BME280;48695;53.480;-6.300;2023-01-26T00:24:45;103000.97;;;8.09;66.04
61537;BME280;48695;53.480;-6.300;2023-01-26T00:27:10;103018.50;;;8.16;65.94
61537;BME280;48695;53.480;-6.300;2023-01-26T00:29:36;103008.06;;;8.14;65.79
61537;BME280;48695;53.480;-6.300;2023-01-26T00:32:01;103019.28;;;8.12;65.85
61537;BME280;48695;53.480;-6.300;2023-01-26T00:34:26;103017.47;;;8.09;65.66
61537;BME280;48695;53.480;-6.300;2023-01-26T00:36:52;103017.34;;;8.04;65.91
61537;BME280;48695;53.480;-6.300;2023-01-26T00:39:17;103025.16;;;8.04;66.21
61537;BME280;48695;53.480;-6.300;2023-01-26T00:41:43;103013.88;;;8.04;65.86
61537;BME280;48695;53.480;-6.300;2023-01-26T00:44:26;103009.50;;;8.01;66.16
61537;BME280;48695;53.480;-6.300;2023-01-26T00:46:52;103006.00;;;8.01;65.88
61537;BME280;48695;53.480;-6.300;2023-01-26T00:49:17;103003.34;;;7.99;65.81
61537;BME280;48695;53.480;-6.300;2023-01-26T00:51:43;102998.13;;;7.98;66.24
61537;BME280;48695;53.480;-6.300;2023-01-26T00:54:08;102992.78;;;7.93;65.72
61537;BME280;48695;53.480;-6.300;2023-01-26T00:56:34;102983.16;;;7.89;65.96
61537;BME280;48695;53.480;-6.300;2023-01-26T00:59:00;102983.25;;;7.92;65.89
61537;BME280;48695;53.480;-6.300;2023-01-26T01:01:25;102980.59;;;7.91;66.08
61537;BME280;48695;53.480;-6.300;2023-01-26T01:03:51;102977.94;;;7.89;65.96
61537;BME280;48695;53.480;-6.300;2023-01-26T01:06:16;102984.81;;;7.86;66.36
61537;BME280;48695;53.480;-6.300;2023-01-26T01:08:42;102984.69;;;7.81;66.11
61537;BME280;48695;53.480;-6.300;2023-01-26T01:11:09;102982.88;;;7.78;66.32
61537;BME280;48695;53.480;-6.300;2023-01-26T01:13:35;102992.66;;;7.87;66.55
61537;BME280;48695;53.480;-6.300;2023-01-26T01:16:08;102999.63;;;7.90;66.68
61537;BME280;48695;53.480;-6.300;2023-01-26T01:18:35;102991.81;;;7.88;66.39
61537;BME280;48695;53.480;-6.300;2023-01-26T01:21:08;102995.41;;;7.93;66.48
61537;BME280;48695;53.480;-6.300;2023-01-26T01:23:35;103005.81;;;7.93;66.61
61537;BME280;48695;53.480;-6.300;2023-01-26T01:26:01;103007.63;;;7.96;66.14
61537;BME280;48695;53.480;-6.300;2023-01-26T01:28:27;103025.00;;;7.98;66.46
61537;BME280;48695;53.480;-6.300;2023-01-26T01:30:52;103025.03;;;8.00;66.66
61537;BME280;48695;53.480;-6.300;2023-01-26T01:33:18;103008.41;;;7.93;66.24
61537;BME280;48695;53.480;-6.300;2023-01-26T01:35:43;103008.66;;;8.04;66.71
61537;BME280;48695;53.480;-6.300;2023-01-26T01:38:09;102997.28;;;8.00;66.34
61537;BME280;48695;53.480;-6.300;2023-01-26T01:40:34;102997.50;;;8.08;66.52
61537;BME280;48695;53.480;-6.300;2023-01-26T01:42:59;102993.16;;;8.09;66.38
61537;BME280;48695;53.480;-6.300;2023-01-26T01:47:56;102975.66;;;8.01;66.03
61537;BME280;48695;53.480;-6.300;2023-01-26T01:50:24;102988.09;;;8.15;66.40
61537;BME280;48695;53.480;-6.300;2023-01-26T01:52:50;102989.03;;;8.17;66.26
61537;BME280;48695;53.480;-6.300;2023-01-26T01:55:17;102987.34;;;8.19;65.86
61537;BME280;48695;53.480;-6.300;2023-01-26T01:57:46;102992.63;;;8.22;65.94
61537;BME280;48695;53.480;-6.300;2023-01-26T02:00:25;102988.09;;;8.13;66.26
61537;BME280;48695;53.480;-6.300;2023-01-26T02:03:00;103005.69;;;8.23;66.24
61537;BME280;48695;53.480;-6.300;2023-01-26T02:08:38;103019.66;;;8.27;65.75
61537;BME280;48695;53.480;-6.300;2023-01-26T02:11:07;103015.31;;;8.27;65.98
61537;BME280;48695;53.480;-6.300;2023-01-26T02:13:33;102988.09;;;8.13;65.81
61537;BME280;48695;53.480;-6.300;2023-01-26T02:15:59;103005.75;;;8.26;66.33
61537;BME280;48695;53.480;-6.300;2023-01-26T02:18:25;103008.41;;;8.28;66.24
61537;BME280;48695;53.480;-6.300;2023-01-26T02:21:02;102999.66;;;8.26;65.97
61537;BME280;48695;53.480;-6.300;2023-01-26T02:26:09;102986.84;;;8.35;66.02
61537;BME280;48695;53.480;-6.300;2023-01-26T02:28:35;102982.63;;;8.37;65.83
61537;BME280;48695;53.480;-6.300;2023-01-26T02:31:01;102973.94;;;8.38;65.88
61537;BME280;48695;53.480;-6.300;2023-01-26T02:33:28;102984.38;;;8.38;65.81
61537;BME280;48695;53.480;-6.300;2023-01-26T02:35:53;102986.13;;;8.39;65.63
61537;BME280;48695;53.480;-6.300;2023-01-26T02:38:19;102973.94;;;8.38;65.88
61537;BME280;48695;53.480;-6.300;2023-01-26T02:40:49;102963.53;;;8.38;65.46
61537;BME280;48695;53.480;-6.300;2023-01-26T02:43:17;102971.34;;;8.38;65.83
61537;BME280;48695;53.480;-6.300;2023-01-26T02:45:42;102980.00;;;8.37;65.76
61537;BME280;48695;53.480;-6.300;2023-01-26T02:48:08;102980.81;;;8.36;65.26
61537;BME280;48695;53.480;-6.300;2023-01-26T02:50:33;102989.47;;;8.35;65.39
61537;BME280;48695;53.480;-6.300;2023-01-26T02:52:59;102992.03;;;8.33;65.51
61537;BME280;48695;53.480;-6.300;2023-01-26T02:55:24;102985.94;;;8.33;65.80
61537;BME280;48695;53.480;-6.300;2023-01-26T02:57:57;102979.00;;;8.32;65.36
61537;BME280;48695;53.480;-6.300;2023-01-26T03:00:24;102975.53;;;8.33;65.42
61537;BME280;48695;53.480;-6.300;2023-01-26T03:02:50;102983.31;;;8.31;65.51
61537;BME280;48695;53.480;-6.300;2023-01-26T03:05:16;102996.28;;;8.30;65.66
61537;BME280;48695;53.480;-6.300;2023-01-26T03:07:41;102993.66;;;8.28;65.60
61537;BME280;48695;53.480;-6.300;2023-01-26T03:10:06;103001.44;;;8.27;65.51
61537;BME280;48695;53.480;-6.300;2023-01-26T03:12:32;103010.06;;;8.26;65.77
61537;BME280;48695;53.480;-6.300;2023-01-26T03:14:57;103015.25;;;8.24;65.99
61537;BME280;48695;53.480;-6.300;2023-01-26T03:17:41;103024.78;;;8.24;65.54
61537;BME280;48695;53.480;-6.300;2023-01-26T03:20:07;103028.25;;;8.24;65.69
61537;BME280;48695;53.480;-6.300;2023-01-26T03:22:51;103023.91;;;8.25;65.55
61537;BME280;48695;53.480;-6.300;2023-01-26T03:25:35;103016.13;;;8.25;66.04
61537;BME280;48695;53.480;-6.300;2023-01-26T03:28:19;103023.06;;;8.26;65.61
61537;BME280;48695;53.480;-6.300;2023-01-26T03:30:49;103011.84;;;8.27;65.88
61537;BME280;48695;53.480;-6.300;2023-01-26T03:33:15;103005.75;;;8.26;65.53
61537;BME280;48695;53.480;-6.300;2023-01-26T03:35:41;103013.59;;;8.28;65.66
61537;BME280;48695;53.480;-6.300;2023-01-26T03:38:06;103012.75;;;8.29;65.90
61537;BME280;48695;53.480;-6.300;2023-01-26T03:40:31;103012.75;;;8.29;65.93
61537;BME280;48695;53.480;-6.300;2023-01-26T03:43:15;103011.91;;;8.30;65.89
61537;BME280;48695;53.480;-6.300;2023-01-26T03:46:01;103011.91;;;8.30;65.92
61537;BME280;48695;53.480;-6.300;2023-01-26T03:48:45;103018.84;;;8.31;65.87
61537;BME280;48695;53.480;-6.300;2023-01-26T03:51:28;103019.75;;;8.31;66.02
61537;BME280;48695;53.480;-6.300;2023-01-26T03:54:12;102992.88;;;8.32;65.56
61537;BME280;48695;53.480;-6.300;2023-01-26T03:56:56;102999.81;;;8.32;65.60
61537;BME280;48695;53.480;-6.300;2023-01-26T03:59:21;103015.44;;;8.32;65.72
61537;BME280;48695;53.480;-6.300;2023-01-26T04:02:01;103001.56;;;8.33;65.86
61537;BME280;48695;53.480;-6.300;2023-01-26T04:04:45;102999.81;;;8.32;65.65
61537;BME280;48695;53.480;-6.300;2023-01-26T04:07:29;103015.44;;;8.32;65.91
61537;BME280;48695;53.480;-6.300;2023-01-26T04:10:13;103015.44;;;8.32;65.43
61537;BME280;48695;53.480;-6.300;2023-01-26T04:12:38;103014.56;;;8.31;65.88
61537;BME280;48695;53.480;-6.300;2023-01-26T04:15:04;103003.25;;;8.31;65.55
61537;BME280;48695;53.480;-6.300;2023-01-26T04:17:48;103010.16;;;8.30;65.84
61537;BME280;48695;53.480;-6.300;2023-01-26T04:20:32;103019.75;;;8.31;65.48
61537;BME280;48695;53.480;-6.300;2023-01-26T04:23:19;103023.19;;;8.30;65.54
61537;BME280;48695;53.480;-6.300;2023-01-26T04:25:45;103011.91;;;8.30;65.39
61537;BME280;48695;53.480;-6.300;2023-01-26T04:28:11;103003.19;;;8.28;65.52
61537;BME280;48695;53.480;-6.300;2023-01-26T04:30:36;103005.75;;;8.26;65.52
61537;BME280;48695;53.480;-6.300;2023-01-26T04:33:01;103016.09;;;8.23;65.57
61537;BME280;48695;53.480;-6.300;2023-01-26T04:35:26;103029.88;;;8.21;64.95
61537;BME280;48695;53.480;-6.300;2023-01-26T04:37:52;103041.09;;;8.17;65.04
61537;BME280;48695;53.480;-6.300;2023-01-26T04:40:17;103049.66;;;8.13;65.00
61537;BME280;48695;53.480;-6.300;2023-01-26T04:42:42;103047.81;;;8.09;65.14
61537;BME280;48695;53.480;-6.300;2023-01-26T04:45:08;103048.53;;;8.03;65.14
61537;BME280;48695;53.480;-6.300;2023-01-26T04:47:34;103045.81;;;7.98;64.57
61537;BME280;48695;53.480;-6.300;2023-01-26T04:49:59;103042.22;;;7.93;65.04
61537;BME280;48695;53.480;-6.300;2023-01-26T04:52:24;103036.00;;;7.87;64.61
61537;BME280;48695;53.480;-6.300;2023-01-26T04:54:49;103041.00;;;7.80;64.88
61537;BME280;48695;53.480;-6.300;2023-01-26T04:57:15;103041.72;;;7.75;64.61
61537;BME280;48695;53.480;-6.300;2023-01-26T04:59:40;103044.19;;;7.69;64.72
61537;BME280;48695;53.480;-6.300;2023-01-26T05:02:05;103046.63;;;7.63;64.89
61537;BME280;48695;53.480;-6.300;2023-01-26T05:04:30;103042.16;;;7.59;65.16
61537;BME280;48695;53.480;-6.300;2023-01-26T05:06:56;103040.28;;;7.53;64.69
61537;BME280;48695;53.480;-6.300;2023-01-26T05:09:21;103049.72;;;7.49;64.71
61537;BME280;48695;53.480;-6.300;2023-01-26T05:11:46;103051.31;;;7.44;64.82
61537;BME280;48695;53.480;-6.300;2023-01-26T05:14:11;103057.28;;;7.40;65.03
61537;BME280;48695;53.480;-6.300;2023-01-26T05:16:37;103054.59;;;7.37;64.95
61537;BME280;48695;53.480;-6.300;2023-01-26T05:19:02;103044.03;;;7.31;64.90
61537;BME280;48695;53.480;-6.300;2023-01-26T05:21:27;103049.13;;;7.28;65.25
61537;BME280;48695;53.480;-6.300;2023-01-26T05:23:53;103055.06;;;7.24;65.05
61537;BME280;48695;53.480;-6.300;2023-01-26T05:26:18;103054.03;;;7.19;65.35
61537;BME280;48695;53.480;-6.300;2023-01-26T05:28:43;103053.09;;;7.15;65.04
61537;BME280;48695;53.480;-6.300;2023-01-26T05:31:09;103045.16;;;7.11;65.09
61537;BME280;48695;53.480;-6.300;2023-01-26T05:33:34;103039.88;;;7.08;65.38
61537;BME280;48695;53.480;-6.300;2023-01-26T05:36:02;103038.97;;;7.06;65.29
61537;BME280;48695;53.480;-6.300;2023-01-26T05:38:28;103035.34;;;7.00;65.29
61537;BME280;48695;53.480;-6.300;2023-01-26T05:40:53;103040.44;;;6.97;64.98
61537;BME280;48695;53.480;-6.300;2023-01-26T05:43:18;103047.25;;;6.94;65.24
61537;BME280;48695;53.480;-6.300;2023-01-26T05:45:43;103040.22;;;6.90;65.24
61537;BME280;48695;53.480;-6.300;2023-01-26T05:48:09;103049.63;;;6.86;65.54
61537;BME280;48695;53.480;-6.300;2023-01-26T05:50:34;103042.56;;;6.82;65.54
61537;BME280;48695;53.480;-6.300;2023-01-26T05:52:59;103046.78;;;6.79;65.46
61537;BME280;48695;53.480;-6.300;2023-01-26T05:55:26;103037.16;;;6.74;65.07
61537;BME280;48695;53.480;-6.300;2023-01-26T05:57:52;103045.72;;;6.72;65.05
61537;BME280;48695;53.480;-6.300;2023-01-26T06:00:17;103062.03;;;6.68;65.44
61537;BME280;48695;53.480;-6.300;2023-01-26T06:02:42;103059.41;;;6.66;65.18
61537;BME280;48695;53.480;-6.300;2023-01-26T06:05:08;103064.44;;;6.62;65.18
61537;BME280;48695;53.480;-6.300;2023-01-26T06:07:34;103066.13;;;6.60;65.27
61537;BME280;48695;53.480;-6.300;2023-01-26T06:09:59;103059.06;;;6.56;65.60
61537;BME280;48695;53.480;-6.300;2023-01-26T06:12:24;103066.75;;;6.53;65.54
61537;BME280;48695;53.480;-6.300;2023-01-26T06:14:49;103078.75;;;6.49;65.71
61537;BME280;48695;53.480;-6.300;2023-01-26T06:17:15;103072.63;;;6.47;65.27
61537;BME280;48695;53.480;-6.300;2023-01-26T06:19:41;103079.50;;;6.45;65.41
61537;BME280;48695;53.480;-6.300;2023-01-26T06:22:07;103075.06;;;6.42;65.66
61537;BME280;48695;53.480;-6.300;2023-01-26T06:24:33;103074.16;;;6.40;65.78
61537;BME280;48695;53.480;-6.300;2023-01-26T06:26:58;103068.97;;;6.40;65.70
61537;BME280;48695;53.480;-6.300;2023-01-26T06:29:23;103068.00;;;6.38;65.36
61537;BME280;48695;53.480;-6.300;2023-01-26T06:31:49;103064.53;;;6.38;65.92
61537;BME280;48695;53.480;-6.300;2023-01-26T06:34:14;103070.53;;;6.35;65.83
61537;BME280;48695;53.480;-6.300;2023-01-26T06:36:39;103067.88;;;6.34;65.55
61537;BME280;48695;53.480;-6.300;2023-01-26T06:39:05;103073.00;;;6.32;65.78
61537;BME280;48695;53.480;-6.300;2023-01-26T06:41:31;103073.84;;;6.31;65.94
61537;BME280;48695;53.480;-6.300;2023-01-26T06:43:57;103080.78;;;6.32;65.65
61537;BME280;48695;53.480;-6.300;2023-01-26T06:46:22;103079.94;;;6.33;65.86
61537;BME280;48695;53.480;-6.300;2023-01-26T06:48:47;103080.88;;;6.34;65.78
61537;BME280;48695;53.480;-6.300;2023-01-26T06:53:53;103086.13;;;6.37;65.89
61537;BME280;48695;53.480;-6.300;2023-01-26T06:56:19;103087.97;;;6.39;66.15
61537;BME280;48695;53.480;-6.300;2023-01-26T06:58:45;103088.03;;;6.42;66.22
61537;BME280;48695;53.480;-6.300;2023-01-26T07:01:23;103086.41;;;6.44;66.33
61537;BME280;48695;53.480;-6.300;2023-01-26T07:03:50;103092.56;;;6.48;66.04
61537;BME280;48695;53.480;-6.300;2023-01-26T07:06:15;103095.22;;;6.49;66.42
61537;BME280;48695;53.480;-6.300;2023-01-26T07:08:41;103092.69;;;6.53;66.17
61537;BME280;48695;53.480;-6.300;2023-01-26T07:11:07;103105.78;;;6.56;66.29
61537;BME280;48695;53.480;-6.300;2023-01-26T07:13:32;103098.03;;;6.57;66.49
61537;BME280;48695;53.480;-6.300;2023-01-26T07:18:26;103116.38;;;6.62;66.34
61537;BME280;48695;53.480;-6.300;2023-01-26T07:20:52;103119.88;;;6.64;66.45
61537;BME280;48695;53.480;-6.300;2023-01-26T07:23:17;103125.19;;;6.67;66.43
61537;BME280;48695;53.480;-6.300;2023-01-26T07:25:42;103111.06;;;6.59;66.10
61537;BME280;48695;53.480;-6.300;2023-01-26T07:28:08;103123.50;;;6.69;66.41
61537;BME280;48695;53.480;-6.300;2023-01-26T07:30:34;103129.66;;;6.71;66.12
61537;BME280;48695;53.480;-6.300;2023-01-26T07:33:00;103131.41;;;6.72;66.18
61537;BME280;48695;53.480;-6.300;2023-01-26T07:35:25;103124.53;;;6.74;66.13
61537;BME280;48695;53.480;-6.300;2023-01-26T07:37:50;103118.53;;;6.75;66.09
61537;BME280;48695;53.480;-6.300;2023-01-26T07:40:15;103112.53;;;6.78;66.05
61537;BME280;48695;53.480;-6.300;2023-01-26T07:42:41;103113.41;;;6.78;66.45
61537;BME280;48695;53.480;-6.300;2023-01-26T07:45:06;103117.78;;;6.79;66.10
61537;BME280;48695;53.480;-6.300;2023-01-26T07:47:31;103119.56;;;6.80;66.44
61537;BME280;48695;53.480;-6.300;2023-01-26T07:49:57;103122.16;;;6.80;66.21
61537;BME280;48695;53.480;-6.300;2023-01-26T07:52:22;103122.16;;;6.80;66.13
61537;BME280;48695;53.480;-6.300;2023-01-26T07:54:50;103131.72;;;6.81;65.99
61537;BME280;48695;53.480;-6.300;2023-01-26T07:57:15;103131.72;;;6.81;66.20
61537;BME280;48695;53.480;-6.300;2023-01-26T07:59:40;103130.88;;;6.82;66.38
61537;BME280;48695;53.480;-6.300;2023-01-26T08:02:07;103130.88;;;6.82;66.22
61537;BME280;48695;53.480;-6.300;2023-01-26T08:04:33;103129.13;;;6.81;66.09
61537;BME280;48695;53.480;-6.300;2023-01-26T08:06:58;103129.13;;;6.81;66.09
61537;BME280;48695;53.480;-6.300;2023-01-26T08:09:23;103128.16;;;6.79;66.25
61537;BME280;48695;53.480;-6.300;2023-01-26T08:11:50;103125.50;;;6.76;66.03
61537;BME280;48695;53.480;-6.300;2023-01-26T08:14:15;103124.59;;;6.75;66.15
61537;BME280;48695;53.480;-6.300;2023-01-26T08:16:40;103118.44;;;6.72;66.13
61537;BME280;48695;53.480;-6.300;2023-01-26T08:19:06;103121.81;;;6.69;65.62
61537;BME280;48695;53.480;-6.300;2023-01-26T08:21:31;103113.94;;;6.66;66.05
61537;BME280;48695;53.480;-6.300;2023-01-26T08:23:56;103112.94;;;6.63;65.97
61537;BME280;48695;53.480;-6.300;2023-01-26T08:26:40;103118.84;;;6.59;65.85
61537;BME280;48695;53.480;-6.300;2023-01-26T08:29:06;103118.72;;;6.54;65.63
61537;BME280;48695;53.480;-6.300;2023-01-26T08:31:31;103115.97;;;6.49;65.86
61537;BME280;48695;53.480;-6.300;2023-01-26T08:33:57;103113.28;;;6.46;65.62
61537;BME280;48695;53.480;-6.300;2023-01-26T08:36:23;103112.25;;;6.41;65.73
61537;BME280;48695;53.480;-6.300;2023-01-26T08:38:48;103114.72;;;6.38;65.54
61537;BME280;48695;53.480;-6.300;2023-01-26T08:41:14;103112.88;;;6.34;65.75
61537;BME280;48695;53.480;-6.300;2023-01-26T08:43:39;103120.56;;;6.31;65.65
61537;BME280;48695;53.480;-6.300;2023-01-26T08:46:04;103117.03;;;6.29;66.02
61537;BME280;48695;53.480;-6.300;2023-01-26T08:48:30;103127.41;;;6.29;66.26
61537;BME280;48695;53.480;-6.300;2023-01-26T08:50:56;103122.22;;;6.29;66.34
61537;BME280;48695;53.480;-6.300;2023-01-26T08:53:22;103123.97;;;6.30;66.55
61537;BME280;48695;53.480;-6.300;2023-01-26T08:55:48;103127.50;;;6.32;66.16
61537;BME280;48695;53.480;-6.300;2023-01-26T08:58:13;103127.66;;;6.37;66.71
61537;BME280;48695;53.480;-6.300;2023-01-26T09:00:38;103132.09;;;6.39;66.49
61537;BME280;48695;53.480;-6.300;2023-01-26T09:03:04;103133.13;;;6.44;66.77
61537;BME280;48695;53.480;-6.300;2023-01-26T09:05:37;103134.97;;;6.48;66.88
61537;BME280;48695;53.480;-6.300;2023-01-26T09:08:02;103123.00;;;6.54;66.92
61537;BME280;48695;53.480;-6.300;2023-01-26T09:10:28;103125.59;;;6.54;66.78
61537;BME280;48695;53.480;-6.300;2023-01-26T09:12:53;103146.75;;;6.64;66.99
61537;BME280;48695;53.480;-6.300;2023-01-26T09:15:18;103150.38;;;6.69;66.63
61537;BME280;48695;53.480;-6.300;2023-01-26T09:17:43;103146.25;;;6.76;66.83
61537;BME280;48695;53.480;-6.300;2023-01-26T09:20:12;103149.88;;;6.81;66.75
61537;BME280;48695;53.480;-6.300;2023-01-26T09:22:37;103157.84;;;6.86;66.60
61537;BME280;48695;53.480;-6.300;2023-01-26T09:25:03;103156.31;;;6.92;66.93
61537;BME280;48695;53.480;-6.300;2023-01-26T09:27:28;103146.16;;;7.00;67.26
61537;BME280;48695;53.480;-6.300;2023-01-26T09:29:53;103149.97;;;7.11;67.12
61537;BME280;48695;53.480;-6.300;2023-01-26T09:32:19;103138.19;;;7.22;67.44
61537;BME280;48695;53.480;-6.300;2023-01-26T09:34:45;103150.72;;;7.36;67.32
61537;BME280;48695;53.480;-6.300;2023-01-26T09:37:10;103153.53;;;7.43;66.98
61537;BME280;48695;53.480;-6.300;2023-01-26T09:39:35;103159.78;;;7.50;67.22
61537;BME280;48695;53.480;-6.300;2023-01-26T09:44:46;103167.94;;;7.61;66.91
61537;BME280;48695;53.480;-6.300;2023-01-26T09:47:18;103161.03;;;7.63;67.14
61537;BME280;48695;53.480;-6.300;2023-01-26T09:49:55;103162.00;;;7.66;66.81
61537;BME280;48695;53.480;-6.300;2023-01-26T09:52:26;103171.59;;;7.69;66.95
61537;BME280;48695;53.480;-6.300;2023-01-26T09:54:54;103164.75;;;7.71;67.03
61537;BME280;48695;53.480;-6.300;2023-01-26T09:58:04;103162.19;;;7.72;66.73
61537;BME280;48695;53.480;-6.300;2023-01-26T10:00:19;103163.94;;;7.73;67.00
61537;BME280;48695;53.480;-6.300;2023-01-26T10:07:59;103173.69;;;8.12;67.50
61537;BME280;48695;53.480;-6.300;2023-01-26T10:10:26;103170.78;;;8.33;68.01
61537;BME280;48695;53.480;-6.300;2023-01-26T10:12:52;103170.59;;;8.58;68.09
61537;BME280;48695;53.480;-6.300;2023-01-26T10:17:47;103172.84;;;9.16;68.42
61537;BME280;48695;53.480;-6.300;2023-01-26T10:20:26;103165.63;;;9.43;68.16
61537;BME280;48695;53.480;-6.300;2023-01-26T10:23:00;103172.38;;;9.74;67.90
61537;BME280;48695;53.480;-6.300;2023-01-26T10:25:28;103169.50;;;10.04;67.97
61537;BME280;48695;53.480;-6.300;2023-01-26T10:27:54;103176.13;;;10.32;68.38
61537;BME280;48695;53.480;-6.300;2023-01-26T10:30:20;103178.28;;;10.56;67.98
61537;BME280;48695;53.480;-6.300;2023-01-26T10:32:46;103189.09;;;10.78;67.56
61537;BME280;48695;53.480;-6.300;2023-01-26T10:35:18;103179.81;;;10.97;67.89
61537;BME280;48695;53.480;-6.300;2023-01-26T10:37:44;103182.72;;;11.16;67.58
61537;BME280;48695;53.480;-6.300;2023-01-26T10:40:10;103182.16;;;11.37;67.61
61537;BME280;48695;53.480;-6.300;2023-01-26T10:42:36;103180.69;;;11.58;67.59
61537;BME280;48695;53.480;-6.300;2023-01-26T10:47:51;103187.44;;;12.10;67.77
61537;BME280;48695;53.480;-6.300;2023-01-26T10:50:26;103190.34;;;12.41;67.99
61537;BME280;48695;53.480;-6.300;2023-01-26T10:52:58;103188.00;;;12.71;67.37
61537;BME280;48695;53.480;-6.300;2023-01-26T10:55:24;103181.25;;;13.03;67.69
61537;BME280;48695;53.480;-6.300;2023-01-26T10:57:49;103181.47;;;13.32;67.47
61537;BME280;48695;53.480;-6.300;2023-01-26T11:00:21;103186.00;;;13.59;67.64
61537;BME280;48695;53.480;-6.300;2023-01-26T11:02:48;103188.72;;;13.88;66.92
61537;BME280;48695;53.480;-6.300;2023-01-26T11:05:15;103192.31;;;14.14;66.94
61537;BME280;48695;53.480;-6.300;2023-01-26T11:07:43;103203.75;;;14.41;66.67
61537;BME280;48695;53.480;-6.300;2023-01-26T11:10:22;103192.41;;;14.60;66.14
61537;BME280;48695;53.480;-6.300;2023-01-26T11:12:48;103203.81;;;14.81;66.23
61537;BME280;48695;53.480;-6.300;2023-01-26T11:18:01;103205.53;;;14.98;65.05
61537;BME280;48695;53.480;-6.300;2023-01-26T11:23:12;103202.03;;;14.84;64.13
61537;BME280;48695;53.480;-6.300;2023-01-26T11:30:49;103202.84;;;14.28;63.49
61537;BME280;48695;53.480;-6.300;2023-01-26T11:33:32;103199.28;;;14.06;63.11
61537;BME280;48695;53.480;-6.300;2023-01-26T11:36:02;103200.97;;;13.87;62.90
61537;BME280;48695;53.480;-6.300;2023-01-26T11:38:38;103199.16;;;13.69;62.91
61537;BME280;48695;53.480;-6.300;2023-01-26T11:51:28;103195.56;;;13.52;64.22
61537;BME280;48695;53.480;-6.300;2023-01-26T12:01:47;103169.44;;;13.80;63.78
61537;BME280;48695;53.480;-6.300;2023-01-26T12:04:17;103165.09;;;13.85;63.58
61537;BME280;48695;53.480;-6.300;2023-01-26T12:06:43;103159.88;;;13.94;64.24
61537;BME280;48695;53.480;-6.300;2023-01-26T12:09:51;103169.53;;;14.04;64.05
61537;BME280;48695;53.480;-6.300;2023-01-26T12:17:12;103169.59;;;14.59;64.51
61537;BME280;48695;53.480;-6.300;2023-01-26T12:25:01;103157.19;;;15.35;63.93
61537;BME280;48695;53.480;-6.300;2023-01-26T12:27:37;103162.38;;;15.59;63.39
61537;BME280;48695;53.480;-6.300;2023-01-26T12:32:34;103162.22;;;15.96;62.46
61537;BME280;48695;53.480;-6.300;2023-01-26T12:34:59;103150.72;;;16.12;63.19
61537;BME280;48695;53.480;-6.300;2023-01-26T12:44:41;103139.69;;;16.67;61.85
61537;BME280;48695;53.480;-6.300;2023-01-26T12:52:22;103136.09;;;16.80;60.13
61537;BME280;48695;53.480;-6.300;2023-01-26T12:54:59;103125.56;;;16.77;59.69
61537;BME280;48695;53.480;-6.300;2023-01-26T12:57:29;103125.59;;;16.76;60.21
61537;BME280;48695;53.480;-6.300;2023-01-26T13:02:58;103127.34;;;16.71;59.03
61537;BME280;48695;53.480;-6.300;2023-01-26T13:05:31;103122.16;;;16.65;59.34
61537;BME280;48695;53.480;-6.300;2023-01-26T13:07:57;103119.53;;;16.60;59.58
61537;BME280;48695;53.480;-6.300;2023-01-26T13:10:24;103108.19;;;16.52;59.01
61537;BME280;48695;53.480;-6.300;2023-01-26T13:13:00;103110.00;;;16.45;59.19
61537;BME280;48695;53.480;-6.300;2023-01-26T13:15:29;103108.31;;;16.38;58.91
61537;BME280;48695;53.480;-6.300;2023-01-26T13:17:55;103101.34;;;16.31;58.69
61537;BME280;48695;53.480;-6.300;2023-01-26T13:26:05;103104.88;;;16.27;58.69
61537;BME280;48695;53.480;-6.300;2023-01-26T13:28:34;103096.94;;;16.31;58.80
61537;BME280;48695;53.480;-6.300;2023-01-26T13:31:03;103093.31;;;16.42;58.82
61537;BME280;48695;53.480;-6.300;2023-01-26T13:33:29;103098.50;;;16.54;59.33
61537;BME280;48695;53.480;-6.300;2023-01-26T13:35:54;103093.09;;;16.66;59.11
61537;BME280;48695;53.480;-6.300;2023-01-26T13:38:33;103092.97;;;16.81;59.45
61537;BME280;48695;53.480;-6.300;2023-01-26T13:40:59;103088.47;;;16.94;59.61
61537;BME280;48695;53.480;-6.300;2023-01-26T13:43:36;103088.34;;;17.03;59.27
61537;BME280;48695;53.480;-6.300;2023-01-26T13:46:14;103076.78;;;17.12;58.87
61537;BME280;48695;53.480;-6.300;2023-01-26T13:48:42;103071.41;;;17.21;59.12
61537;BME280;48695;53.480;-6.300;2023-01-26T13:51:51;103067.75;;;17.31;59.06
61537;BME280;48695;53.480;-6.300;2023-01-26T13:53:59;103064.94;;;17.45;59.64
61537;BME280;48695;53.480;-6.300;2023-01-26T14:01:41;103060.63;;;17.40;57.84
61537;BME280;48695;53.480;-6.300;2023-01-26T14:04:10;103058.94;;;17.32;57.71
61537;BME280;48695;53.480;-6.300;2023-01-26T14:06:36;103053.75;;;17.25;57.66
61537;BME280;48695;53.480;-6.300;2023-01-26T14:09:02;103053.03;;;17.14;57.45
61537;BME280;48695;53.480;-6.300;2023-01-26T14:11:28;103057.53;;;17.02;57.29
61537;BME280;48695;53.480;-6.300;2023-01-26T14:13:55;103058.59;;;16.89;57.23
61537;BME280;48695;53.480;-6.300;2023-01-26T14:16:23;103063.19;;;16.73;57.10
61537;BME280;48695;53.480;-6.300;2023-01-26T14:19:01;103057.09;;;16.60;56.76
61537;BME280;48695;53.480;-6.300;2023-01-26T14:21:27;103057.16;;;16.56;56.87
61537;BME280;48695;53.480;-6.300;2023-01-26T14:23:54;103051.88;;;16.57;57.50
61537;BME280;48695;53.480;-6.300;2023-01-26T14:26:21;103056.16;;;16.69;58.27